createdAt,value
2017-12-03T00:01:57.523Z,31.63
2017-12-03T00:04:25.566Z,32.53
2017-12-03T00:06:54.597Z,31.83
2017-12-03T00:09:22.691Z,29.53
2017-12-03T00:11:50.745Z,33.20
2017-12-03T00:14:19.678Z,32.67
2017-12-03T00:16:47.774Z,32.57
2017-12-03T00:19:15.825Z,28.93
2017-12-03T00:21:43.866Z,27.17
2017-12-03T00:24:12.002Z,31.87
2017-12-03T00:26:40.051Z,37.13
2017-12-03T00:29:09.394Z,29.30
2017-12-03T00:31:37.486Z,30.10
2017-12-03T00:34:05.547Z,30.00
2017-12-03T00:36:34.394Z,36.40
2017-12-03T00:39:02.493Z,29.53
2017-12-03T00:41:30.544Z,25.73
2017-12-03T00:43:58.635Z,35.50
2017-12-03T00:46:26.728Z,29.60
2017-12-03T00:48:54.823Z,33.10
2017-12-03T00:51:22.995Z,31.53
2017-12-03T00:53:51.047Z,31.00
2017-12-03T00:56:19.138Z,32.60
2017-12-03T00:58:47.189Z,32.90
2017-12-03T01:01:15.234Z,29.07
2017-12-03T01:03:43.516Z,30.67
2017-12-03T01:06:11.570Z,26.77
2017-12-03T01:08:39.614Z,34.17
2017-12-03T01:11:07.730Z,28.60
2017-12-03T01:13:35.788Z,25.92
2017-12-03T01:16:03.835Z,36.37
2017-12-03T01:18:31.927Z,27.90
2017-12-03T01:20:59.974Z,32.83
2017-12-03T01:23:28.027Z,28.53
2017-12-03T01:25:56.130Z,32.87
2017-12-03T01:28:24.191Z,31.95
2017-12-03T01:30:52.330Z,29.83
2017-12-03T01:33:20.422Z,28.17
2017-12-03T01:35:48.470Z,28.03
2017-12-03T01:38:16.562Z,28.48
2017-12-03T01:40:44.624Z,26.10
2017-12-03T01:43:13.491Z,33.90
2017-12-03T01:45:41.555Z,29.73
2017-12-03T01:48:09.671Z,32.80
2017-12-03T01:50:37.719Z,32.27
2017-12-03T01:53:05.767Z,31.80
2017-12-03T01:55:34.625Z,28.33
2017-12-03T01:58:02.683Z,33.97
2017-12-03T02:00:30.770Z,34.73
2017-12-03T02:02:58.862Z,31.30
2017-12-03T02:05:26.911Z,31.20
2017-12-03T02:07:55.064Z,32.73
2017-12-03T02:10:23.115Z,30.17
2017-12-03T02:12:51.163Z,28.87
2017-12-03T02:15:20.027Z,38.17
2017-12-03T02:17:48.131Z,32.92
2017-12-03T02:20:16.990Z,28.65
2017-12-03T02:22:45.077Z,36.80
2017-12-03T02:25:13.354Z,33.40
2017-12-03T02:27:41.419Z,33.47
2017-12-03T02:30:09.470Z,35.28
2017-12-03T02:32:38.331Z,33.90
2017-12-03T02:35:06.435Z,32.03
2017-12-03T02:37:34.487Z,37.75
2017-12-03T02:40:02.615Z,30.65
2017-12-03T02:42:30.670Z,25.43
2017-12-03T02:44:58.718Z,29.05
2017-12-03T02:47:26.824Z,29.15
2017-12-03T02:49:54.885Z,25.10
2017-12-03T02:52:23.700Z,29.50
2017-12-03T02:54:51.795Z,27.48
2017-12-03T02:57:19.851Z,30.98
2017-12-03T02:59:47.955Z,33.80
2017-12-03T03:02:16.011Z,31.17
2017-12-03T03:04:44.878Z,29.35
2017-12-03T03:07:12.975Z,28.00
2017-12-03T03:09:41.072Z,32.25
2017-12-03T03:12:09.898Z,34.05
2017-12-03T03:14:37.996Z,37.42
2017-12-03T03:17:06.050Z,32.78
2017-12-03T03:19:34.920Z,31.05
2017-12-03T03:22:03.079Z,30.77
2017-12-03T03:24:31.141Z,28.60
2017-12-03T03:26:59.226Z,38.92
2017-12-03T03:29:27.279Z,42.20
2017-12-03T03:31:56.107Z,30.73
2017-12-03T03:34:24.214Z,23.87
2017-12-03T03:36:52.266Z,27.52
2017-12-03T03:39:21.082Z,30.93
2017-12-03T03:41:49.178Z,30.62
2017-12-03T03:44:17.233Z,36.65
2017-12-03T03:46:46.099Z,35.72
2017-12-03T03:49:14.155Z,28.27
2017-12-03T03:51:42.246Z,37.97
2017-12-03T03:54:10.298Z,30.17
2017-12-03T03:56:38.423Z,29.83
2017-12-03T03:59:06.481Z,34.65
2017-12-03T04:01:34.530Z,36.72
2017-12-03T04:04:03.395Z,32.90
2017-12-03T04:06:31.451Z,29.23
2017-12-03T04:08:59.554Z,30.45
2017-12-03T04:11:27.646Z,29.95
2017-12-03T04:13:55.707Z,27.48
2017-12-03T04:16:23.820Z,39.70
2017-12-03T04:18:51.866Z,38.10
2017-12-03T04:21:19.922Z,35.58
2017-12-03T04:23:50.104Z,40.00
2017-12-03T04:26:18.163Z,39.13
2017-12-03T04:28:46.211Z,52.35
2017-12-03T04:31:15.447Z,43.70
2017-12-03T04:33:43.498Z,46.33
2017-12-03T04:36:11.558Z,56.28
2017-12-03T04:38:39.674Z,51.13
2017-12-03T04:41:08.494Z,52.22
2017-12-03T04:43:37.334Z,44.87
2017-12-03T04:46:05.440Z,46.50
2017-12-03T04:48:33.549Z,56.17
2017-12-03T04:51:02.406Z,49.78
2017-12-03T04:53:30.510Z,56.72
2017-12-03T04:55:58.606Z,59.83
2017-12-03T04:58:26.663Z,51.03
2017-12-03T05:00:54.724Z,51.35
2017-12-03T05:03:22.838Z,47.28
2017-12-03T05:05:50.885Z,50.28
2017-12-03T05:08:18.948Z,54.70
2017-12-03T05:10:47.827Z,62.22
2017-12-03T05:13:15.883Z,46.90
2017-12-03T05:18:17.301Z,48.03
2017-12-03T05:20:45.351Z,56.80
2017-12-03T05:23:13.411Z,49.53
2017-12-03T05:25:41.511Z,56.95
2017-12-03T05:28:09.611Z,50.65
2017-12-03T05:30:37.714Z,55.95
2017-12-03T05:33:05.847Z,53.72
2017-12-03T05:35:33.999Z,50.47
2017-12-03T05:38:03.558Z,53.37
2017-12-03T05:40:31.662Z,53.33
2017-12-03T05:42:59.717Z,66.12
2017-12-03T05:45:27.774Z,47.80
2017-12-03T05:47:55.871Z,50.47
2017-12-03T05:50:24.694Z,53.05
2017-12-03T05:52:52.793Z,50.45
2017-12-03T05:55:20.847Z,53.35
2017-12-03T05:57:49.701Z,53.45
2017-12-03T06:00:17.807Z,55.53
2017-12-03T06:02:45.867Z,44.97
2017-12-03T06:05:13.924Z,41.92
2017-12-03T06:07:42.031Z,49.83
2017-12-03T06:10:10.086Z,51.17
2017-12-03T06:12:38.134Z,47.40
2017-12-03T06:15:06.259Z,62.80
2017-12-03T06:17:34.326Z,57.35
2017-12-03T06:20:03.148Z,63.53
2017-12-03T06:22:31.251Z,63.13
2017-12-03T06:24:59.306Z,57.90
2017-12-03T06:27:27.823Z,50.97
2017-12-03T06:29:55.870Z,48.50
2017-12-03T06:32:24.695Z,50.85
2017-12-03T06:34:52.794Z,56.55
2017-12-03T06:37:20.855Z,56.58
2017-12-03T06:39:48.915Z,55.07
2017-12-03T06:42:17.782Z,55.42
2017-12-03T06:44:45.826Z,55.57
2017-12-03T06:47:13.881Z,64.73
2017-12-03T06:49:42.742Z,60.75
2017-12-03T06:52:10.800Z,58.03
2017-12-03T06:54:38.890Z,47.90
2017-12-03T06:57:06.991Z,56.42
2017-12-03T06:59:35.066Z,47.97
2017-12-03T07:02:03.171Z,58.92
2017-12-03T07:04:31.222Z,49.58
2017-12-03T07:06:59.318Z,57.92
2017-12-03T07:09:27.375Z,59.80
2017-12-03T07:11:55.427Z,50.22
2017-12-03T07:14:23.531Z,48.20
2017-12-03T07:16:52.347Z,51.43
2017-12-03T07:19:20.399Z,49.10
2017-12-03T07:21:48.494Z,48.72
2017-12-03T07:24:17.318Z,49.00
2017-12-03T07:26:45.366Z,48.60
2017-12-03T07:29:13.474Z,44.00
2017-12-03T07:31:42.295Z,56.95
2017-12-03T07:34:10.352Z,51.42
2017-12-03T07:36:39.241Z,50.17
2017-12-03T07:39:07.282Z,46.53
2017-12-03T07:41:35.361Z,50.92
2017-12-03T07:44:03.484Z,43.60
2017-12-03T07:46:31.586Z,50.60
2017-12-03T07:48:59.679Z,36.73
2017-12-03T07:51:29.462Z,36.88
2017-12-03T07:53:57.588Z,46.78
2017-12-03T07:56:26.458Z,41.65
2017-12-03T07:58:54.506Z,40.10
2017-12-03T08:01:22.676Z,43.97
2017-12-03T08:03:50.766Z,42.08
2017-12-03T08:06:18.820Z,43.28
2017-12-03T08:08:47.648Z,41.50
2017-12-03T08:11:15.758Z,44.65
2017-12-03T08:13:43.854Z,42.25
2017-12-03T08:16:11.968Z,32.78
2017-12-03T08:18:40.034Z,39.47
2017-12-03T08:21:08.140Z,36.83
2017-12-03T08:23:37.012Z,38.03
2017-12-03T08:26:05.066Z,41.17
2017-12-03T08:28:33.174Z,31.48
2017-12-03T08:31:01.291Z,43.92
2017-12-03T08:33:30.115Z,32.53
2017-12-03T08:35:58.334Z,32.45
2017-12-03T08:38:26.396Z,30.93
2017-12-03T08:40:54.507Z,29.12
2017-12-03T08:43:22.718Z,37.55
2017-12-03T08:45:50.770Z,28.55
2017-12-03T08:48:18.828Z,28.45
2017-12-03T08:50:46.923Z,31.80
2017-12-03T08:53:15.027Z,36.53
2017-12-03T08:55:43.087Z,26.35
2017-12-03T08:58:11.186Z,22.53
2017-12-03T09:00:39.245Z,28.35
2017-12-03T09:03:08.106Z,32.10
2017-12-03T09:05:36.210Z,26.30
2017-12-03T09:08:04.262Z,25.77
2017-12-03T09:10:32.319Z,27.17
2017-12-03T09:13:00.424Z,24.75
2017-12-03T09:15:28.482Z,25.37
2017-12-03T09:17:56.699Z,24.15
2017-12-03T09:20:24.742Z,28.30
2017-12-03T09:22:52.794Z,20.80
2017-12-03T09:25:20.891Z,21.50
2017-12-03T09:27:49.706Z,25.73
2017-12-03T09:30:18.655Z,21.60
2017-12-03T09:32:46.702Z,25.03
2017-12-03T09:35:15.505Z,24.93
2017-12-03T09:37:43.622Z,26.97
2017-12-03T09:40:11.670Z,20.65
2017-12-03T09:42:39.727Z,20.67
2017-12-03T09:45:07.818Z,23.73
2017-12-03T09:47:36.643Z,20.65
2017-12-03T09:50:04.784Z,18.97
2017-12-03T09:52:32.807Z,21.70
2017-12-03T09:55:00.907Z,18.30
2017-12-03T09:57:28.951Z,17.80
2017-12-03T09:59:56.998Z,16.97
2017-12-03T10:02:25.118Z,18.10
2017-12-03T10:04:53.167Z,14.03
2017-12-03T10:07:21.269Z,18.60
2017-12-03T10:09:49.320Z,18.80
2017-12-03T10:12:17.493Z,18.23
2017-12-03T10:14:45.587Z,14.90
2017-12-03T10:17:13.670Z,19.87
2017-12-03T10:19:41.755Z,15.73
2017-12-03T10:22:09.794Z,12.97
2017-12-03T10:24:38.610Z,19.03
2017-12-03T10:27:07.470Z,18.40
2017-12-03T10:29:35.520Z,17.03
2017-12-03T10:32:03.618Z,13.13
2017-12-03T10:34:31.667Z,15.27
2017-12-03T10:37:00.706Z,16.50
2017-12-03T10:39:29.570Z,15.50
2017-12-03T10:41:58.379Z,14.33
2017-12-03T10:44:26.467Z,10.90
2017-12-03T10:46:55.317Z,12.70
2017-12-03T10:49:24.364Z,14.20
2017-12-03T10:51:53.183Z,13.90
2017-12-03T10:54:21.271Z,13.73
2017-12-03T10:56:49.322Z,15.50
2017-12-03T10:59:17.440Z,13.37
2017-12-03T11:01:45.500Z,14.20
2017-12-03T11:04:14.318Z,11.07
2017-12-03T11:06:42.416Z,14.23
2017-12-03T11:09:10.595Z,18.17
2017-12-03T11:11:38.646Z,13.00
2017-12-03T11:14:07.459Z,13.60
2017-12-03T11:16:36.423Z,14.90
2017-12-03T11:19:04.463Z,12.33
2017-12-03T11:21:32.512Z,13.27
2017-12-03T11:24:00.726Z,11.23
2017-12-03T11:26:29.538Z,10.97
2017-12-03T11:28:58.490Z,11.70
2017-12-03T11:31:26.768Z,14.33
2017-12-03T11:33:54.803Z,10.20
2017-12-03T11:36:22.860Z,8.43
2017-12-03T11:38:50.976Z,11.30
2017-12-03T11:41:19.784Z,10.23
2017-12-03T11:43:47.836Z,12.43
2017-12-03T11:46:15.939Z,10.53
2017-12-03T11:48:44.743Z,11.40
2017-12-03T11:51:13.560Z,12.40
2017-12-03T11:53:41.650Z,12.17
2017-12-03T11:56:10.774Z,11.30
2017-12-03T11:58:38.815Z,9.10
2017-12-03T12:01:07.624Z,8.43
2017-12-03T12:03:36.476Z,7.93
2017-12-03T12:06:04.530Z,10.93
2017-12-03T12:08:32.719Z,11.07
2017-12-03T12:11:00.760Z,8.23
2017-12-03T12:13:28.858Z,7.97
2017-12-03T12:15:57.664Z,6.43
2017-12-03T12:18:25.795Z,6.67
2017-12-03T12:20:53.910Z,7.80
2017-12-03T12:23:21.948Z,7.60
2017-12-03T12:25:49.995Z,7.90
2017-12-03T12:28:19.975Z,10.40
2017-12-03T12:30:48.012Z,7.70
2017-12-03T12:33:16.819Z,7.30
2017-12-03T12:35:44.906Z,9.23
2017-12-03T12:38:13.007Z,9.50
2017-12-03T12:40:41.050Z,7.73
2017-12-03T12:43:09.854Z,8.40
2017-12-03T12:45:38.706Z,8.40
2017-12-03T12:48:06.986Z,9.90
2017-12-03T12:50:36.922Z,7.13
2017-12-03T12:53:05.206Z,10.90
2017-12-03T12:55:33.494Z,10.00
2017-12-03T12:58:01.828Z,11.50
2017-12-03T13:00:30.184Z,13.10
2017-12-03T13:02:58.666Z,13.37
2017-12-03T13:05:26.958Z,11.87
2017-12-03T13:07:55.246Z,11.07
2017-12-03T13:10:23.580Z,8.53
2017-12-03T13:12:51.907Z,11.53
2017-12-03T13:15:20.252Z,9.23
2017-12-03T13:17:49.299Z,11.37
2017-12-03T13:20:17.583Z,9.40
2017-12-03T13:22:45.909Z,8.90
2017-12-03T13:25:14.221Z,9.13
2017-12-03T13:27:43.302Z,8.33
2017-12-03T13:30:11.590Z,8.63
2017-12-03T13:32:40.838Z,9.33
2017-12-03T13:35:09.118Z,9.07
2017-12-03T13:37:38.272Z,8.90
2017-12-03T13:40:06.559Z,10.83
2017-12-03T13:42:34.838Z,7.50
2017-12-03T13:45:03.175Z,12.33
2017-12-03T13:47:31.455Z,11.53
2017-12-03T13:49:59.738Z,9.87
2017-12-03T13:52:28.223Z,10.20
2017-12-03T13:54:57.471Z,8.50
2017-12-03T13:57:26.510Z,8.80
2017-12-03T13:59:54.830Z,8.33
2017-12-03T14:02:23.430Z,9.63
2017-12-03T14:04:51.722Z,10.00
2017-12-03T14:07:20.035Z,9.50
2017-12-03T14:09:48.355Z,11.13
2017-12-03T14:12:16.643Z,9.30
2017-12-03T14:14:45.084Z,6.90
2017-12-03T14:17:13.367Z,7.47
2017-12-03T14:19:41.647Z,7.17
2017-12-03T14:22:09.981Z,11.40
2017-12-03T14:24:39.048Z,9.83
2017-12-03T14:27:07.336Z,12.63
2017-12-03T14:29:35.659Z,10.47
2017-12-03T14:32:04.719Z,22.77
2017-12-03T14:34:33.061Z,14.90
2017-12-03T14:37:02.113Z,14.37
2017-12-03T14:39:30.479Z,18.77
2017-12-03T14:41:58.762Z,14.63
2017-12-03T14:44:27.070Z,7.93
2017-12-03T14:46:55.411Z,14.50
2017-12-03T14:49:23.694Z,13.80
2017-12-03T14:51:51.995Z,16.03
2017-12-03T14:54:20.322Z,12.10
2017-12-03T14:56:48.670Z,11.15
2017-12-03T14:59:17.010Z,12.00
2017-12-03T15:01:46.030Z,9.87
2017-12-03T15:04:14.363Z,15.80
2017-12-03T15:06:43.467Z,12.07
2017-12-03T15:09:12.526Z,12.50
2017-12-03T15:11:40.903Z,11.50
2017-12-03T15:14:09.203Z,11.63
2017-12-03T15:16:37.582Z,10.38
2017-12-03T15:19:05.915Z,12.13
2017-12-03T15:21:34.212Z,12.55
2017-12-03T15:24:02.584Z,11.43
2017-12-03T15:26:30.880Z,10.33
2017-12-03T15:28:59.217Z,11.77
2017-12-03T15:31:28.492Z,12.63
2017-12-03T15:33:56.786Z,9.23
2017-12-03T15:36:25.837Z,12.63
2017-12-03T15:38:54.163Z,9.83
2017-12-03T15:41:22.451Z,9.40
2017-12-03T15:43:50.867Z,11.83
2017-12-03T15:46:19.150Z,8.67
2017-12-03T15:48:47.421Z,11.00
2017-12-03T15:51:15.784Z,12.73
2017-12-03T15:53:44.106Z,10.55
2017-12-03T15:56:13.394Z,9.00
2017-12-03T15:58:41.767Z,17.10
2017-12-03T16:01:10.123Z,13.93
2017-12-03T16:03:38.442Z,14.57
2017-12-03T16:06:06.810Z,12.93
2017-12-03T16:08:35.102Z,14.60
2017-12-03T16:11:03.374Z,12.03
2017-12-03T16:13:31.772Z,13.03
2017-12-03T16:16:00.051Z,10.97
2017-12-03T16:18:28.368Z,12.60
2017-12-03T16:20:57.422Z,13.40
2017-12-03T16:23:25.843Z,11.87
2017-12-03T16:25:54.135Z,10.43
2017-12-03T16:28:22.428Z,13.33
2017-12-03T16:30:50.786Z,13.53
2017-12-03T16:33:19.073Z,9.82
2017-12-03T16:35:47.368Z,12.70
2017-12-03T16:38:15.699Z,10.90
2017-12-03T16:40:44.768Z,14.90
2017-12-03T16:43:13.102Z,12.07
2017-12-03T16:45:42.200Z,11.73
2017-12-03T16:48:10.483Z,12.50
2017-12-03T16:50:38.840Z,15.70
2017-12-03T16:53:07.130Z,13.77
2017-12-03T16:55:35.422Z,11.40
2017-12-03T16:58:04.548Z,11.10
2017-12-03T17:00:32.840Z,12.18
2017-12-03T17:03:01.127Z,12.48
2017-12-03T17:05:29.542Z,12.00
2017-12-03T17:07:57.880Z,10.10
2017-12-03T17:10:26.162Z,14.50
2017-12-03T17:12:54.503Z,12.48
2017-12-03T17:15:24.391Z,12.80
2017-12-03T17:17:52.683Z,13.20
2017-12-03T17:20:21.018Z,13.23
2017-12-03T17:22:49.351Z,11.20
2017-12-03T17:25:18.379Z,14.13
2017-12-03T17:27:46.710Z,15.63
2017-12-03T17:30:15.766Z,12.00
2017-12-03T17:32:44.054Z,14.67
2017-12-03T17:35:12.395Z,13.25
2017-12-03T17:37:41.506Z,14.37
2017-12-03T17:40:09.794Z,12.27
2017-12-03T17:42:38.855Z,12.20
2017-12-03T17:45:07.282Z,16.00
2017-12-03T17:47:35.587Z,13.20
2017-12-03T17:50:04.695Z,13.97
2017-12-03T17:52:33.992Z,15.30
2017-12-03T17:55:03.287Z,11.77
2017-12-03T17:57:31.580Z,12.63
2017-12-03T17:59:59.936Z,16.15
2017-12-03T18:02:28.434Z,14.90
2017-12-03T18:04:56.759Z,16.53
2017-12-03T18:07:25.110Z,15.80
2017-12-03T18:09:53.463Z,13.20
2017-12-03T18:12:22.518Z,14.83
2017-12-03T18:14:50.807Z,16.83
2017-12-03T18:17:19.322Z,18.23
2017-12-03T18:19:47.607Z,19.27
2017-12-03T18:22:15.894Z,16.40
2017-12-03T18:24:44.255Z,17.23
2017-12-03T18:27:12.555Z,15.65
2017-12-03T18:29:40.842Z,14.73
2017-12-03T18:32:09.580Z,16.92
2017-12-03T18:34:37.887Z,21.50
2017-12-03T18:37:06.958Z,17.03
2017-12-03T18:39:35.334Z,17.67
2017-12-03T18:42:03.648Z,18.97
2017-12-03T18:44:31.948Z,14.82
2017-12-03T18:47:01.571Z,14.00
2017-12-03T18:49:29.945Z,18.47
2017-12-03T18:51:58.252Z,20.45
2017-12-03T18:54:26.558Z,19.70
2017-12-03T18:56:55.668Z,15.50
2017-12-03T18:59:24.736Z,16.50
2017-12-03T19:01:53.095Z,17.17
2017-12-03T19:04:21.389Z,16.97
2017-12-03T19:06:49.739Z,18.50
2017-12-03T19:09:18.831Z,17.05
2017-12-03T19:11:47.225Z,18.00
2017-12-03T19:14:15.513Z,23.30
2017-12-03T19:16:44.202Z,20.65
2017-12-03T19:19:12.503Z,19.83
2017-12-03T19:21:40.886Z,18.90
2017-12-03T19:24:09.206Z,21.33
2017-12-03T19:26:38.310Z,21.83
2017-12-03T19:29:07.369Z,22.15
2017-12-03T19:31:36.627Z,24.42
2017-12-03T19:34:06.127Z,21.97
2017-12-03T19:36:34.424Z,21.00
2017-12-03T19:39:03.486Z,21.48
2017-12-03T19:41:31.822Z,22.90
2017-12-03T19:44:01.982Z,26.35
2017-12-03T19:46:31.620Z,18.90
2017-12-03T19:49:01.606Z,21.83
2017-12-03T19:51:30.995Z,22.83
2017-12-03T19:53:59.284Z,22.40
2017-12-03T19:56:27.897Z,21.73
2017-12-03T19:58:56.278Z,25.50
2017-12-03T20:01:24.579Z,22.65
2017-12-03T20:03:52.919Z,23.73
2017-12-03T20:06:22.134Z,21.60
2017-12-03T20:08:50.466Z,23.90
2017-12-03T20:11:18.854Z,26.40
2017-12-03T20:13:47.155Z,26.08
2017-12-03T20:16:16.210Z,25.83
2017-12-03T20:18:44.570Z,28.73
2017-12-03T20:21:12.869Z,28.23
2017-12-03T20:23:41.171Z,34.70
2017-12-03T20:26:09.504Z,21.90
2017-12-03T20:28:37.798Z,29.58
2017-12-03T20:31:06.351Z,33.07
2017-12-03T20:33:34.643Z,27.67
2017-12-03T20:36:02.975Z,20.23
2017-12-03T20:38:31.258Z,30.00
2017-12-03T20:41:03.430Z,30.50
2017-12-03T20:43:31.722Z,25.17
2017-12-03T20:46:00.036Z,25.23
2017-12-03T20:48:28.371Z,27.23
2017-12-03T20:50:56.665Z,25.47
2017-12-03T20:53:25.025Z,28.05
2017-12-03T20:55:54.098Z,30.87
2017-12-03T20:58:22.460Z,29.20
2017-12-03T21:00:50.738Z,23.07
2017-12-03T21:03:19.083Z,23.62
2017-12-03T21:05:47.403Z,31.70
2017-12-03T21:08:15.703Z,21.47
2017-12-03T21:10:44.214Z,32.20
2017-12-03T21:13:12.506Z,28.90
2017-12-03T21:15:41.655Z,28.17
2017-12-03T21:18:09.979Z,30.47
2017-12-03T21:20:38.274Z,37.97
2017-12-03T21:23:06.623Z,33.88
2017-12-03T21:25:35.682Z,25.87
2017-12-03T21:28:03.990Z,28.50
2017-12-03T21:30:32.331Z,33.90
2017-12-03T21:33:00.624Z,30.03
2017-12-03T21:35:28.960Z,29.27
2017-12-03T21:37:57.291Z,28.20
2017-12-03T21:40:26.387Z,31.90
2017-12-03T21:42:54.714Z,31.17
2017-12-03T21:45:23.046Z,25.57
2017-12-03T21:47:51.384Z,29.43
2017-12-03T21:50:19.675Z,29.83
2017-12-03T21:52:47.995Z,30.40
2017-12-03T21:55:16.606Z,32.30
2017-12-03T21:57:44.882Z,23.57
2017-12-03T22:00:16.555Z,21.77
2017-12-03T22:02:44.852Z,32.40
2017-12-03T22:05:13.134Z,24.67
2017-12-03T22:07:41.465Z,30.43
2017-12-03T22:10:10.523Z,25.50
2017-12-03T22:12:38.838Z,28.20
2017-12-03T22:15:07.167Z,25.33
2017-12-03T22:17:35.467Z,31.50
2017-12-03T22:20:03.817Z,28.90
2017-12-03T22:22:32.106Z,35.30
2017-12-03T22:25:00.394Z,27.07
2017-12-03T22:27:28.727Z,29.60
2017-12-03T22:29:57.014Z,38.20
2017-12-03T22:32:25.343Z,27.67
2017-12-03T22:34:53.636Z,32.63
2017-12-03T22:37:21.953Z,34.80
2017-12-03T22:39:51.060Z,29.67
2017-12-03T22:42:20.123Z,36.30
2017-12-03T22:44:48.456Z,25.30
2017-12-03T22:47:17.506Z,31.87
2017-12-03T22:49:45.868Z,35.70
2017-12-03T22:52:14.919Z,38.87
2017-12-03T22:54:43.202Z,33.20
2017-12-03T22:57:11.535Z,34.93
2017-12-03T22:59:40.135Z,41.70
2017-12-03T23:02:08.468Z,40.43
2017-12-03T23:04:36.754Z,34.10
2017-12-03T23:07:05.083Z,42.70
2017-12-03T23:09:33.482Z,38.10
2017-12-03T23:12:01.832Z,34.10
2017-12-03T23:14:30.259Z,34.27
2017-12-03T23:16:58.556Z,38.47
2017-12-03T23:19:26.850Z,35.37
2017-12-03T23:21:55.347Z,36.27
2017-12-03T23:24:23.630Z,41.63
2017-12-03T23:26:51.914Z,36.70
2017-12-03T23:29:20.251Z,40.77
2017-12-03T23:31:48.598Z,44.83
2017-12-03T23:34:16.890Z,40.20
2017-12-03T23:36:45.946Z,38.57
2017-12-03T23:39:14.286Z,47.13
2017-12-03T23:41:42.570Z,43.67
2017-12-03T23:44:12.495Z,38.80
2017-12-03T23:46:42.340Z,40.47
2017-12-03T23:49:10.681Z,34.97
2017-12-03T23:51:39.082Z,33.80
2017-12-03T23:54:07.370Z,38.70
2017-12-03T23:56:35.704Z,42.20
2017-12-03T23:59:04.795Z,26.30
